sensor_id;sensor_type;location;lat;lon;timestamp;P1;durP1;ratioP1;P2;durP2;ratioP2
4650;SDS011;2338;49.602;8.722;2023-04-03T00:01:24;4.40;;;3.78;;
4650;SDS011;2338;49.602;8.722;2023-04-03T00:04:10;4.70;;;2.80;;
4650;SDS011;2338;49.602;8.722;2023-04-03T00:06:56;3.80;;;2.75;;
4650;SDS011;2338;49.602;8.722;2023-04-03T00:09:43;3.67;;;2.80;;
4650;SDS011;2338;49.602;8.722;2023-04-03T00:12:28;3.83;;;2.15;;
4650;SDS011;2338;49.602;8.722;2023-04-03T00:15:14;4.15;;;2.40;;
4650;SDS011;2338;49.602;8.722;2023-04-03T00:18:00;6.60;;;2.60;;
4650;SDS011;2338;49.602;8.722;2023-04-03T00:20:46;9.70;;;2.80;;
4650;SDS011;2338;49.602;8.722;2023-04-03T00:23:31;4.47;;;2.53;;
4650;SDS011;2338;49.602;8.722;2023-04-03T00:26:19;6.93;;;2.70;;
4650;SDS011;2338;49.602;8.722;2023-04-03T00:29:05;4.05;;;2.50;;
4650;SDS011;2338;49.602;8.722;2023-04-03T00:31:50;4.28;;;2.72;;
4650;SDS011;2338;49.602;8.722;2023-04-03T00:34:36;6.55;;;3.03;;
4650;SDS011;2338;49.602;8.722;2023-04-03T00:37:22;8.15;;;2.38;;
4650;SDS011;2338;49.602;8.722;2023-04-03T00:40:08;3.80;;;2.40;;
4650;SDS011;2338;49.602;8.722;2023-04-03T00:42:57;2.25;;;1.90;;
4650;SDS011;2338;49.602;8.722;2023-04-03T00:45:44;4.45;;;2.10;;
4650;SDS011;2338;49.602;8.722;2023-04-03T00:48:31;5.43;;;2.75;;
4650;SDS011;2338;49.602;8.722;2023-04-03T00:51:19;2.88;;;2.35;;
4650;SDS011;2338;49.602;8.722;2023-04-03T00:54:09;4.95;;;2.40;;
4650;SDS011;2338;49.602;8.722;2023-04-03T00:56:55;2.75;;;2.00;;
4650;SDS011;2338;49.602;8.722;2023-04-03T00:59:45;3.97;;;2.58;;
4650;SDS011;2338;49.602;8.722;2023-04-03T01:02:35;6.55;;;2.60;;
4650;SDS011;2338;49.602;8.722;2023-04-03T01:05:21;3.67;;;2.40;;
4650;SDS011;2338;49.602;8.722;2023-04-03T01:08:07;3.55;;;2.42;;
4650;SDS011;2338;49.602;8.722;2023-04-03T01:10:53;6.43;;;2.65;;
4650;SDS011;2338;49.602;8.722;2023-04-03T01:13:38;3.75;;;2.85;;
4650;SDS011;2338;49.602;8.722;2023-04-03T01:16:26;4.70;;;3.13;;
4650;SDS011;2338;49.602;8.722;2023-04-03T01:19:14;4.57;;;2.90;;
4650;SDS011;2338;49.602;8.722;2023-04-03T01:22:04;3.08;;;2.63;;
4650;SDS011;2338;49.602;8.722;2023-04-03T01:25:00;4.57;;;2.92;;
4650;SDS011;2338;49.602;8.722;2023-04-03T01:27:46;7.13;;;3.42;;
4650;SDS011;2338;49.602;8.722;2023-04-03T01:30:33;5.57;;;3.63;;
4650;SDS011;2338;49.602;8.722;2023-04-03T01:33:23;5.35;;;3.58;;
4650;SDS011;2338;49.602;8.722;2023-04-03T01:36:09;2.83;;;2.53;;
4650;SDS011;2338;49.602;8.722;2023-04-03T01:38:58;4.10;;;3.00;;
4650;SDS011;2338;49.602;8.722;2023-04-03T01:41:44;6.93;;;3.25;;
4650;SDS011;2338;49.602;8.722;2023-04-03T01:44:30;6.22;;;3.20;;
4650;SDS011;2338;49.602;8.722;2023-04-03T01:47:16;4.55;;;3.00;;
4650;SDS011;2338;49.602;8.722;2023-04-03T01:50:03;6.40;;;3.50;;
4650;SDS011;2338;49.602;8.722;2023-04-03T01:52:49;5.95;;;2.72;;
4650;SDS011;2338;49.602;8.722;2023-04-03T01:55:35;5.05;;;3.58;;
4650;SDS011;2338;49.602;8.722;2023-04-03T01:58:20;5.55;;;3.05;;
4650;SDS011;2338;49.602;8.722;2023-04-03T02:01:06;3.60;;;3.20;;
4650;SDS011;2338;49.602;8.722;2023-04-03T02:03:52;8.48;;;3.72;;
4650;SDS011;2338;49.602;8.722;2023-04-03T02:06:39;4.85;;;3.60;;
4650;SDS011;2338;49.602;8.722;2023-04-03T02:09:24;4.63;;;3.40;;
4650;SDS011;2338;49.602;8.722;2023-04-03T02:12:10;5.85;;;3.63;;
4650;SDS011;2338;49.602;8.722;2023-04-03T02:14:55;5.15;;;3.72;;
4650;SDS011;2338;49.602;8.722;2023-04-03T02:17:41;5.28;;;3.92;;
4650;SDS011;2338;49.602;8.722;2023-04-03T02:20:27;5.55;;;3.88;;
4650;SDS011;2338;49.602;8.722;2023-04-03T02:23:14;6.40;;;3.88;;
4650;SDS011;2338;49.602;8.722;2023-04-03T02:26:07;5.53;;;3.53;;
4650;SDS011;2338;49.602;8.722;2023-04-03T02:28:54;6.22;;;3.42;;
4650;SDS011;2338;49.602;8.722;2023-04-03T02:31:40;9.68;;;3.63;;
4650;SDS011;2338;49.602;8.722;2023-04-03T02:34:26;11.88;;;4.35;;
4650;SDS011;2338;49.602;8.722;2023-04-03T02:37:12;5.68;;;3.30;;
4650;SDS011;2338;49.602;8.722;2023-04-03T02:39:58;5.68;;;3.80;;
4650;SDS011;2338;49.602;8.722;2023-04-03T02:42:44;4.63;;;3.60;;
4650;SDS011;2338;49.602;8.722;2023-04-03T02:45:30;6.90;;;3.72;;
4650;SDS011;2338;49.602;8.722;2023-04-03T02:48:15;16.40;;;4.22;;
4650;SDS011;2338;49.602;8.722;2023-04-03T02:51:01;5.10;;;4.03;;
4650;SDS011;2338;49.602;8.722;2023-04-03T02:53:47;9.60;;;3.53;;
4650;SDS011;2338;49.602;8.722;2023-04-03T02:56:34;4.75;;;3.45;;
4650;SDS011;2338;49.602;8.722;2023-04-03T02:59:20;6.20;;;3.85;;
4650;SDS011;2338;49.602;8.722;2023-04-03T03:02:05;4.32;;;3.03;;
4650;SDS011;2338;49.602;8.722;2023-04-03T03:04:52;7.45;;;3.55;;
4650;SDS011;2338;49.602;8.722;2023-04-03T03:07:37;6.65;;;3.58;;
4650;SDS011;2338;49.602;8.722;2023-04-03T03:10:23;6.63;;;3.60;;
4650;SDS011;2338;49.602;8.722;2023-04-03T03:13:10;4.85;;;3.33;;
4650;SDS011;2338;49.602;8.722;2023-04-03T03:15:56;4.57;;;3.70;;
4650;SDS011;2338;49.602;8.722;2023-04-03T03:18:42;5.55;;;3.58;;
4650;SDS011;2338;49.602;8.722;2023-04-03T03:21:28;6.45;;;3.80;;
4650;SDS011;2338;49.602;8.722;2023-04-03T03:24:13;4.85;;;3.40;;
4650;SDS011;2338;49.602;8.722;2023-04-03T03:26:59;5.43;;;3.22;;
4650;SDS011;2338;49.602;8.722;2023-04-03T03:29:46;3.85;;;3.28;;
4650;SDS011;2338;49.602;8.722;2023-04-03T03:32:32;6.50;;;3.55;;
4650;SDS011;2338;49.602;8.722;2023-04-03T03:35:18;5.03;;;3.40;;
4650;SDS011;2338;49.602;8.722;2023-04-03T03:38:03;4.10;;;3.55;;
4650;SDS011;2338;49.602;8.722;2023-04-03T03:40:49;4.60;;;3.55;;
4650;SDS011;2338;49.602;8.722;2023-04-03T03:43:36;4.47;;;3.75;;
4650;SDS011;2338;49.602;8.722;2023-04-03T03:46:23;4.30;;;3.80;;
4650;SDS011;2338;49.602;8.722;2023-04-03T03:49:09;5.15;;;3.78;;
4650;SDS011;2338;49.602;8.722;2023-04-03T03:51:55;5.90;;;4.18;;
4650;SDS011;2338;49.602;8.722;2023-04-03T03:54:41;5.70;;;4.18;;
4650;SDS011;2338;49.602;8.722;2023-04-03T03:57:26;6.07;;;4.22;;
4650;SDS011;2338;49.602;8.722;2023-04-03T04:00:12;4.05;;;3.65;;
4650;SDS011;2338;49.602;8.722;2023-04-03T04:03:00;5.75;;;3.80;;
4650;SDS011;2338;49.602;8.722;2023-04-03T04:05:46;5.05;;;3.95;;
4650;SDS011;2338;49.602;8.722;2023-04-03T04:08:32;7.25;;;4.53;;
4650;SDS011;2338;49.602;8.722;2023-04-03T04:11:17;4.68;;;4.18;;
4650;SDS011;2338;49.602;8.722;2023-04-03T04:14:04;6.22;;;4.40;;
4650;SDS011;2338;49.602;8.722;2023-04-03T04:16:49;8.05;;;4.18;;
4650;SDS011;2338;49.602;8.722;2023-04-03T04:19:37;4.82;;;4.10;;
4650;SDS011;2338;49.602;8.722;2023-04-03T04:22:23;7.20;;;4.47;;
4650;SDS011;2338;49.602;8.722;2023-04-03T04:25:08;6.90;;;5.10;;
4650;SDS011;2338;49.602;8.722;2023-04-03T04:27:54;5.80;;;4.18;;
4650;SDS011;2338;49.602;8.722;2023-04-03T04:30:40;11.68;;;5.35;;
4650;SDS011;2338;49.602;8.722;2023-04-03T04:33:26;4.65;;;4.20;;
4650;SDS011;2338;49.602;8.722;2023-04-03T04:36:13;4.45;;;3.55;;
4650;SDS011;2338;49.602;8.722;2023-04-03T04:38:59;5.90;;;4.38;;
4650;SDS011;2338;49.602;8.722;2023-04-03T04:41:44;4.72;;;4.00;;
4650;SDS011;2338;49.602;8.722;2023-04-03T04:44:30;12.40;;;8.57;;
4650;SDS011;2338;49.602;8.722;2023-04-03T04:47:16;11.32;;;5.00;;
4650;SDS011;2338;49.602;8.722;2023-04-03T04:50:02;5.70;;;4.13;;
4650;SDS011;2338;49.602;8.722;2023-04-03T04:52:49;5.60;;;4.00;;
4650;SDS011;2338;49.602;8.722;2023-04-03T04:55:34;4.72;;;3.80;;
4650;SDS011;2338;49.602;8.722;2023-04-03T04:58:20;6.32;;;4.47;;
4650;SDS011;2338;49.602;8.722;2023-04-03T05:01:06;6.32;;;4.28;;
4650;SDS011;2338;49.602;8.722;2023-04-03T05:03:53;7.13;;;4.72;;
4650;SDS011;2338;49.602;8.722;2023-04-03T05:06:39;8.45;;;4.75;;
4650;SDS011;2338;49.602;8.722;2023-04-03T05:09:26;9.77;;;3.88;;
4650;SDS011;2338;49.602;8.722;2023-04-03T05:12:11;9.57;;;6.57;;
4650;SDS011;2338;49.602;8.722;2023-04-03T05:14:57;5.68;;;4.80;;
4650;SDS011;2338;49.602;8.722;2023-04-03T05:17:43;11.40;;;8.15;;
4650;SDS011;2338;49.602;8.722;2023-04-03T05:20:29;12.27;;;8.35;;
4650;SDS011;2338;49.602;8.722;2023-04-03T05:23:14;14.63;;;8.18;;
4650;SDS011;2338;49.602;8.722;2023-04-03T05:26:01;8.57;;;6.30;;
4650;SDS011;2338;49.602;8.722;2023-04-03T05:28:47;10.10;;;7.00;;
4650;SDS011;2338;49.602;8.722;2023-04-03T05:31:33;6.20;;;5.18;;
4650;SDS011;2338;49.602;8.722;2023-04-03T05:34:19;7.20;;;4.68;;
4650;SDS011;2338;49.602;8.722;2023-04-03T05:37:04;6.60;;;5.10;;
4650;SDS011;2338;49.602;8.722;2023-04-03T05:39:50;10.05;;;6.57;;
4650;SDS011;2338;49.602;8.722;2023-04-03T05:42:37;8.15;;;6.22;;
4650;SDS011;2338;49.602;8.722;2023-04-03T05:45:23;8.10;;;6.20;;
4650;SDS011;2338;49.602;8.722;2023-04-03T05:48:08;8.15;;;6.50;;
4650;SDS011;2338;49.602;8.722;2023-04-03T05:50:54;13.30;;;7.55;;
4650;SDS011;2338;49.602;8.722;2023-04-03T05:53:40;14.98;;;9.55;;
4650;SDS011;2338;49.602;8.722;2023-04-03T05:56:27;8.32;;;6.40;;
4650;SDS011;2338;49.602;8.722;2023-04-03T05:59:14;6.18;;;5.45;;
4650;SDS011;2338;49.602;8.722;2023-04-03T06:01:59;6.68;;;5.40;;
4650;SDS011;2338;49.602;8.722;2023-04-03T06:04:45;8.32;;;5.60;;
4650;SDS011;2338;49.602;8.722;2023-04-03T06:07:31;8.75;;;5.90;;
4650;SDS011;2338;49.602;8.722;2023-04-03T06:10:16;9.10;;;6.32;;
4650;SDS011;2338;49.602;8.722;2023-04-03T06:13:04;11.55;;;5.95;;
4650;SDS011;2338;49.602;8.722;2023-04-03T06:15:51;11.50;;;5.50;;
4650;SDS011;2338;49.602;8.722;2023-04-03T06:18:36;7.32;;;5.30;;
4650;SDS011;2338;49.602;8.722;2023-04-03T06:21:22;9.30;;;6.05;;
4650;SDS011;2338;49.602;8.722;2023-04-03T06:24:09;9.10;;;6.07;;
4650;SDS011;2338;49.602;8.722;2023-04-03T06:26:57;12.10;;;7.28;;
4650;SDS011;2338;49.602;8.722;2023-04-03T06:29:43;10.85;;;6.85;;
4650;SDS011;2338;49.602;8.722;2023-04-03T06:32:30;8.65;;;6.22;;
4650;SDS011;2338;49.602;8.722;2023-04-03T06:35:16;7.55;;;5.70;;
4650;SDS011;2338;49.602;8.722;2023-04-03T06:38:01;9.05;;;6.50;;
4650;SDS011;2338;49.602;8.722;2023-04-03T06:40:52;14.07;;;7.72;;
4650;SDS011;2338;49.602;8.722;2023-04-03T06:43:38;12.32;;;7.22;;
4650;SDS011;2338;49.602;8.722;2023-04-03T06:46:25;7.97;;;5.80;;
4650;SDS011;2338;49.602;8.722;2023-04-03T06:49:12;10.07;;;5.65;;
4650;SDS011;2338;49.602;8.722;2023-04-03T06:51:58;7.93;;;5.15;;
4650;SDS011;2338;49.602;8.722;2023-04-03T06:54:44;9.50;;;4.57;;
4650;SDS011;2338;49.602;8.722;2023-04-03T06:57:30;8.88;;;4.40;;
4650;SDS011;2338;49.602;8.722;2023-04-03T07:00:16;8.60;;;4.55;;
4650;SDS011;2338;49.602;8.722;2023-04-03T07:03:03;9.45;;;3.55;;
4650;SDS011;2338;49.602;8.722;2023-04-03T07:05:50;8.07;;;3.92;;
4650;SDS011;2338;49.602;8.722;2023-04-03T07:08:35;9.40;;;3.67;;
4650;SDS011;2338;49.602;8.722;2023-04-03T07:11:21;7.22;;;4.00;;
4650;SDS011;2338;49.602;8.722;2023-04-03T07:14:06;5.55;;;4.15;;
4650;SDS011;2338;49.602;8.722;2023-04-03T07:16:52;5.28;;;3.97;;
4650;SDS011;2338;49.602;8.722;2023-04-03T07:19:38;6.95;;;4.20;;
4650;SDS011;2338;49.602;8.722;2023-04-03T07:22:25;8.30;;;4.15;;
4650;SDS011;2338;49.602;8.722;2023-04-03T07:25:11;6.13;;;3.67;;
4650;SDS011;2338;49.602;8.722;2023-04-03T07:27:56;7.68;;;3.83;;
4650;SDS011;2338;49.602;8.722;2023-04-03T07:30:43;8.77;;;3.35;;
4650;SDS011;2338;49.602;8.722;2023-04-03T07:33:30;8.48;;;3.83;;
4650;SDS011;2338;49.602;8.722;2023-04-03T07:36:17;5.80;;;3.40;;
4650;SDS011;2338;49.602;8.722;2023-04-03T07:39:07;7.93;;;3.40;;
4650;SDS011;2338;49.602;8.722;2023-04-03T07:41:52;4.60;;;2.60;;
4650;SDS011;2338;49.602;8.722;2023-04-03T07:44:39;7.75;;;3.55;;
4650;SDS011;2338;49.602;8.722;2023-04-03T07:47:24;10.35;;;3.63;;
4650;SDS011;2338;49.602;8.722;2023-04-03T07:50:10;4.90;;;2.50;;
4650;SDS011;2338;49.602;8.722;2023-04-03T07:52:56;6.13;;;2.50;;
4650;SDS011;2338;49.602;8.722;2023-04-03T07:55:45;5.85;;;2.50;;
4650;SDS011;2338;49.602;8.722;2023-04-03T07:58:31;5.72;;;2.67;;
4650;SDS011;2338;49.602;8.722;2023-04-03T08:01:17;6.25;;;2.80;;
4650;SDS011;2338;49.602;8.722;2023-04-03T08:04:03;5.07;;;2.50;;
4650;SDS011;2338;49.602;8.722;2023-04-03T08:06:50;6.88;;;2.40;;
4650;SDS011;2338;49.602;8.722;2023-04-03T08:09:35;2.88;;;2.20;;
4650;SDS011;2338;49.602;8.722;2023-04-03T08:12:22;5.63;;;2.40;;
4650;SDS011;2338;49.602;8.722;2023-04-03T08:15:08;11.82;;;1.80;;
4650;SDS011;2338;49.602;8.722;2023-04-03T08:17:54;3.83;;;2.05;;
4650;SDS011;2338;49.602;8.722;2023-04-03T08:20:40;4.65;;;1.90;;
4650;SDS011;2338;49.602;8.722;2023-04-03T08:23:26;4.88;;;2.03;;
4650;SDS011;2338;49.602;8.722;2023-04-03T08:26:12;8.07;;;1.90;;
4650;SDS011;2338;49.602;8.722;2023-04-03T08:29:00;4.68;;;2.28;;
4650;SDS011;2338;49.602;8.722;2023-04-03T08:31:46;8.43;;;2.78;;
4650;SDS011;2338;49.602;8.722;2023-04-03T08:34:33;4.68;;;2.05;;
4650;SDS011;2338;49.602;8.722;2023-04-03T08:37:20;5.95;;;2.30;;
4650;SDS011;2338;49.602;8.722;2023-04-03T08:40:07;4.53;;;2.10;;
4650;SDS011;2338;49.602;8.722;2023-04-03T08:43:01;2.30;;;1.55;;
4650;SDS011;2338;49.602;8.722;2023-04-03T08:45:59;6.45;;;2.40;;
4650;SDS011;2338;49.602;8.722;2023-04-03T08:48:48;7.60;;;1.90;;
4650;SDS011;2338;49.602;8.722;2023-04-03T08:51:44;5.20;;;2.42;;
4650;SDS011;2338;49.602;8.722;2023-04-03T08:54:34;3.28;;;1.70;;
4650;SDS011;2338;49.602;8.722;2023-04-03T08:57:26;5.30;;;1.73;;
4650;SDS011;2338;49.602;8.722;2023-04-03T09:00:17;2.45;;;1.70;;
4650;SDS011;2338;49.602;8.722;2023-04-03T09:03:10;4.10;;;1.70;;
4650;SDS011;2338;49.602;8.722;2023-04-03T09:05:59;7.00;;;2.13;;
4650;SDS011;2338;49.602;8.722;2023-04-03T09:08:49;3.38;;;1.98;;
4650;SDS011;2338;49.602;8.722;2023-04-03T09:11:44;4.87;;;1.60;;
4650;SDS011;2338;49.602;8.722;2023-04-03T09:14:41;2.63;;;1.85;;
4650;SDS011;2338;49.602;8.722;2023-04-03T09:17:36;3.20;;;2.00;;
4650;SDS011;2338;49.602;8.722;2023-04-03T09:20:30;3.53;;;1.67;;
4650;SDS011;2338;49.602;8.722;2023-04-03T09:23:27;7.80;;;2.10;;
4650;SDS011;2338;49.602;8.722;2023-04-03T09:26:16;6.47;;;1.75;;
4650;SDS011;2338;49.602;8.722;2023-04-03T09:29:05;6.10;;;2.05;;
4650;SDS011;2338;49.602;8.722;2023-04-03T09:31:53;3.15;;;1.55;;
4650;SDS011;2338;49.602;8.722;2023-04-03T09:34:41;5.82;;;2.35;;
4650;SDS011;2338;49.602;8.722;2023-04-03T09:37:37;4.57;;;2.10;;
4650;SDS011;2338;49.602;8.722;2023-04-03T09:40:32;3.60;;;1.70;;
4650;SDS011;2338;49.602;8.722;2023-04-03T09:43:26;3.67;;;2.03;;
4650;SDS011;2338;49.602;8.722;2023-04-03T09:46:20;2.78;;;1.42;;
4650;SDS011;2338;49.602;8.722;2023-04-03T09:49:13;2.43;;;1.37;;
4650;SDS011;2338;49.602;8.722;2023-04-03T09:51:59;4.15;;;1.80;;
4650;SDS011;2338;49.602;8.722;2023-04-03T09:55:07;4.50;;;1.50;;
4650;SDS011;2338;49.602;8.722;2023-04-03T09:57:59;3.92;;;1.77;;
4650;SDS011;2338;49.602;8.722;2023-04-03T10:00:46;4.22;;;2.00;;
4650;SDS011;2338;49.602;8.722;2023-04-03T10:03:39;5.78;;;1.35;;
4650;SDS011;2338;49.602;8.722;2023-04-03T10:06:30;6.35;;;2.90;;
4650;SDS011;2338;49.602;8.722;2023-04-03T10:09:20;4.15;;;1.55;;
4650;SDS011;2338;49.602;8.722;2023-04-03T10:12:10;2.87;;;1.50;;
4650;SDS011;2338;49.602;8.722;2023-04-03T10:14:58;4.88;;;1.85;;
4650;SDS011;2338;49.602;8.722;2023-04-03T10:17:49;3.50;;;1.60;;
4650;SDS011;2338;49.602;8.722;2023-04-03T10:20:40;4.17;;;2.00;;
4650;SDS011;2338;49.602;8.722;2023-04-03T10:23:31;5.17;;;1.83;;
4650;SDS011;2338;49.602;8.722;2023-04-03T10:26:28;5.20;;;1.83;;
4650;SDS011;2338;49.602;8.722;2023-04-03T10:29:24;7.07;;;2.13;;
4650;SDS011;2338;49.602;8.722;2023-04-03T10:32:22;2.90;;;1.70;;
4650;SDS011;2338;49.602;8.722;2023-04-03T10:35:18;2.87;;;1.47;;
4650;SDS011;2338;49.602;8.722;2023-04-03T10:38:15;3.50;;;2.00;;
4650;SDS011;2338;49.602;8.722;2023-04-03T10:41:07;2.97;;;1.53;;
4650;SDS011;2338;49.602;8.722;2023-04-03T10:43:59;4.70;;;1.87;;
4650;SDS011;2338;49.602;8.722;2023-04-03T10:46:55;4.90;;;1.57;;
4650;SDS011;2338;49.602;8.722;2023-04-03T10:49:50;5.60;;;1.40;;
4650;SDS011;2338;49.602;8.722;2023-04-03T10:52:45;9.23;;;1.80;;
4650;SDS011;2338;49.602;8.722;2023-04-03T10:55:37;2.97;;;1.73;;
4650;SDS011;2338;49.602;8.722;2023-04-03T10:58:28;2.13;;;1.20;;
4650;SDS011;2338;49.602;8.722;2023-04-03T11:01:18;3.30;;;1.77;;
4650;SDS011;2338;49.602;8.722;2023-04-03T11:04:07;4.60;;;2.00;;
4650;SDS011;2338;49.602;8.722;2023-04-03T11:06:56;3.53;;;1.80;;
4650;SDS011;2338;49.602;8.722;2023-04-03T11:09:45;5.07;;;1.90;;
4650;SDS011;2338;49.602;8.722;2023-04-03T11:12:36;4.57;;;1.93;;
4650;SDS011;2338;49.602;8.722;2023-04-03T11:15:27;2.57;;;1.70;;
4650;SDS011;2338;49.602;8.722;2023-04-03T11:18:17;4.57;;;1.47;;
4650;SDS011;2338;49.602;8.722;2023-04-03T11:21:09;6.47;;;2.17;;
4650;SDS011;2338;49.602;8.722;2023-04-03T11:24:01;5.80;;;1.73;;
4650;SDS011;2338;49.602;8.722;2023-04-03T11:26:51;3.80;;;1.70;;
4650;SDS011;2338;49.602;8.722;2023-04-03T11:29:39;6.30;;;2.27;;
4650;SDS011;2338;49.602;8.722;2023-04-03T11:32:32;4.17;;;2.10;;
4650;SDS011;2338;49.602;8.722;2023-04-03T11:35:42;4.30;;;1.73;;
4650;SDS011;2338;49.602;8.722;2023-04-03T11:38:31;5.33;;;2.13;;
4650;SDS011;2338;49.602;8.722;2023-04-03T11:41:24;8.27;;;1.93;;
4650;SDS011;2338;49.602;8.722;2023-04-03T11:44:25;5.90;;;1.93;;
4650;SDS011;2338;49.602;8.722;2023-04-03T11:50:32;5.47;;;1.90;;
4650;SDS011;2338;49.602;8.722;2023-04-03T11:53:35;2.93;;;2.00;;
4650;SDS011;2338;49.602;8.722;2023-04-03T11:56:29;6.20;;;2.10;;
4650;SDS011;2338;49.602;8.722;2023-04-03T11:59:19;3.50;;;1.50;;
4650;SDS011;2338;49.602;8.722;2023-04-03T12:02:22;2.97;;;1.70;;
4650;SDS011;2338;49.602;8.722;2023-04-03T12:05:25;4.07;;;1.77;;
4650;SDS011;2338;49.602;8.722;2023-04-03T12:08:16;5.50;;;1.80;;
4650;SDS011;2338;49.602;8.722;2023-04-03T12:11:22;4.27;;;2.13;;
4650;SDS011;2338;49.602;8.722;2023-04-03T12:14:14;2.53;;;1.37;;
4650;SDS011;2338;49.602;8.722;2023-04-03T12:17:01;5.93;;;2.20;;
4650;SDS011;2338;49.602;8.722;2023-04-03T12:19:47;7.27;;;2.20;;
4650;SDS011;2338;49.602;8.722;2023-04-03T12:22:32;3.60;;;1.70;;
4650;SDS011;2338;49.602;8.722;2023-04-03T12:28:39;3.20;;;1.60;;
4650;SDS011;2338;49.602;8.722;2023-04-03T12:31:31;3.03;;;2.00;;
4650;SDS011;2338;49.602;8.722;2023-04-03T12:34:33;2.90;;;1.80;;
4650;SDS011;2338;49.602;8.722;2023-04-03T12:37:37;3.23;;;2.27;;
4650;SDS011;2338;49.602;8.722;2023-04-03T12:40:29;5.67;;;2.23;;
4650;SDS011;2338;49.602;8.722;2023-04-03T12:43:25;4.30;;;2.00;;
4650;SDS011;2338;49.602;8.722;2023-04-03T12:46:28;4.77;;;1.97;;
4650;SDS011;2338;49.602;8.722;2023-04-03T12:49:24;4.20;;;1.73;;
4650;SDS011;2338;49.602;8.722;2023-04-03T12:52:19;3.10;;;1.70;;
4650;SDS011;2338;49.602;8.722;2023-04-03T12:55:15;3.47;;;1.80;;
4650;SDS011;2338;49.602;8.722;2023-04-03T12:58:13;3.40;;;1.77;;
4650;SDS011;2338;49.602;8.722;2023-04-03T13:01:02;6.80;;;2.27;;
4650;SDS011;2338;49.602;8.722;2023-04-03T13:03:55;6.10;;;2.17;;
4650;SDS011;2338;49.602;8.722;2023-04-03T13:06:42;4.10;;;2.17;;
4650;SDS011;2338;49.602;8.722;2023-04-03T13:09:29;3.90;;;1.90;;
4650;SDS011;2338;49.602;8.722;2023-04-03T13:12:16;4.07;;;2.10;;
4650;SDS011;2338;49.602;8.722;2023-04-03T13:15:11;3.23;;;2.17;;
4650;SDS011;2338;49.602;8.722;2023-04-03T13:18:00;6.13;;;2.33;;
4650;SDS011;2338;49.602;8.722;2023-04-03T13:20:46;4.10;;;1.90;;
4650;SDS011;2338;49.602;8.722;2023-04-03T13:23:34;5.10;;;2.50;;
4650;SDS011;2338;49.602;8.722;2023-04-03T13:26:24;3.90;;;1.80;;
4650;SDS011;2338;49.602;8.722;2023-04-03T13:29:18;3.57;;;2.07;;
4650;SDS011;2338;49.602;8.722;2023-04-03T13:32:13;4.20;;;1.97;;
4650;SDS011;2338;49.602;8.722;2023-04-03T13:38:23;3.37;;;2.10;;
4650;SDS011;2338;49.602;8.722;2023-04-03T13:41:24;3.93;;;1.80;;
4650;SDS011;2338;49.602;8.722;2023-04-03T13:44:22;2.87;;;1.87;;
4650;SDS011;2338;49.602;8.722;2023-04-03T13:47:18;4.03;;;2.10;;
4650;SDS011;2338;49.602;8.722;2023-04-03T13:50:13;4.80;;;2.03;;
4650;SDS011;2338;49.602;8.722;2023-04-03T13:53:08;4.50;;;2.00;;
4650;SDS011;2338;49.602;8.722;2023-04-03T13:56:00;2.53;;;1.63;;
4650;SDS011;2338;49.602;8.722;2023-04-03T13:58:53;4.33;;;1.83;;
4650;SDS011;2338;49.602;8.722;2023-04-03T14:01:43;3.50;;;1.43;;
4650;SDS011;2338;49.602;8.722;2023-04-03T14:04:33;3.23;;;1.73;;
4650;SDS011;2338;49.602;8.722;2023-04-03T14:07:32;4.10;;;1.90;;
4650;SDS011;2338;49.602;8.722;2023-04-03T14:10:19;3.83;;;2.00;;
4650;SDS011;2338;49.602;8.722;2023-04-03T14:13:05;3.47;;;2.07;;
4650;SDS011;2338;49.602;8.722;2023-04-03T14:15:51;2.83;;;1.70;;
4650;SDS011;2338;49.602;8.722;2023-04-03T14:18:37;3.70;;;2.23;;
4650;SDS011;2338;49.602;8.722;2023-04-03T14:21:23;4.30;;;1.80;;
4650;SDS011;2338;49.602;8.722;2023-04-03T14:24:08;2.50;;;1.57;;
4650;SDS011;2338;49.602;8.722;2023-04-03T14:26:56;3.63;;;1.83;;
4650;SDS011;2338;49.602;8.722;2023-04-03T14:29:43;3.60;;;1.47;;
4650;SDS011;2338;49.602;8.722;2023-04-03T14:32:29;3.23;;;1.57;;
4650;SDS011;2338;49.602;8.722;2023-04-03T14:35:15;2.70;;;1.60;;
4650;SDS011;2338;49.602;8.722;2023-04-03T14:38:02;5.97;;;1.93;;
4650;SDS011;2338;49.602;8.722;2023-04-03T14:40:57;5.40;;;1.87;;
4650;SDS011;2338;49.602;8.722;2023-04-03T14:43:45;2.73;;;1.40;;
4650;SDS011;2338;49.602;8.722;2023-04-03T14:46:33;4.57;;;2.23;;
4650;SDS011;2338;49.602;8.722;2023-04-03T14:49:22;3.20;;;1.73;;
4650;SDS011;2338;49.602;8.722;2023-04-03T14:52:16;3.10;;;1.87;;
4650;SDS011;2338;49.602;8.722;2023-04-03T14:55:05;3.80;;;1.70;;
4650;SDS011;2338;49.602;8.722;2023-04-03T14:57:51;4.33;;;1.80;;
4650;SDS011;2338;49.602;8.722;2023-04-03T15:00:38;6.47;;;2.17;;
4650;SDS011;2338;49.602;8.722;2023-04-03T15:03:24;2.33;;;1.27;;
4650;SDS011;2338;49.602;8.722;2023-04-03T15:06:10;7.10;;;1.57;;
4650;SDS011;2338;49.602;8.722;2023-04-03T15:08:57;3.80;;;1.90;;
4650;SDS011;2338;49.602;8.722;2023-04-03T15:11:43;8.37;;;2.07;;
4650;SDS011;2338;49.602;8.722;2023-04-03T15:14:29;4.93;;;2.00;;
4650;SDS011;2338;49.602;8.722;2023-04-03T15:17:17;3.60;;;1.60;;
4650;SDS011;2338;49.602;8.722;2023-04-03T15:20:09;3.73;;;1.60;;
4650;SDS011;2338;49.602;8.722;2023-04-03T15:22:57;2.57;;;1.77;;
4650;SDS011;2338;49.602;8.722;2023-04-03T15:25:45;2.93;;;1.60;;
4650;SDS011;2338;49.602;8.722;2023-04-03T15:28:32;3.33;;;1.83;;
4650;SDS011;2338;49.602;8.722;2023-04-03T15:31:20;3.40;;;1.50;;
4650;SDS011;2338;49.602;8.722;2023-04-03T15:34:07;2.47;;;1.20;;
4650;SDS011;2338;49.602;8.722;2023-04-03T15:36:52;2.93;;;1.70;;
4650;SDS011;2338;49.602;8.722;2023-04-03T15:39:38;1.77;;;1.30;;
4650;SDS011;2338;49.602;8.722;2023-04-03T15:42:23;2.90;;;1.60;;
4650;SDS011;2338;49.602;8.722;2023-04-03T15:45:09;3.63;;;1.60;;
4650;SDS011;2338;49.602;8.722;2023-04-03T15:47:55;2.60;;;1.40;;
4650;SDS011;2338;49.602;8.722;2023-04-03T15:50:42;3.77;;;1.93;;
4650;SDS011;2338;49.602;8.722;2023-04-03T15:53:27;2.03;;;1.47;;
4650;SDS011;2338;49.602;8.722;2023-04-03T15:56:12;2.70;;;1.53;;
4650;SDS011;2338;49.602;8.722;2023-04-03T15:58:58;3.13;;;1.80;;
4650;SDS011;2338;49.602;8.722;2023-04-03T16:01:44;3.13;;;1.50;;
4650;SDS011;2338;49.602;8.722;2023-04-03T16:04:30;3.97;;;1.90;;
4650;SDS011;2338;49.602;8.722;2023-04-03T16:07:18;3.87;;;1.97;;
4650;SDS011;2338;49.602;8.722;2023-04-03T16:10:04;5.40;;;1.60;;
4650;SDS011;2338;49.602;8.722;2023-04-03T16:12:51;4.23;;;1.60;;
4650;SDS011;2338;49.602;8.722;2023-04-03T16:15:37;3.03;;;1.73;;
4650;SDS011;2338;49.602;8.722;2023-04-03T16:18:22;2.27;;;1.60;;
4650;SDS011;2338;49.602;8.722;2023-04-03T16:21:08;2.63;;;1.37;;
4650;SDS011;2338;49.602;8.722;2023-04-03T16:23:57;4.60;;;2.00;;
4650;SDS011;2338;49.602;8.722;2023-04-03T16:26:43;6.03;;;1.70;;
4650;SDS011;2338;49.602;8.722;2023-04-03T16:29:28;3.33;;;1.83;;
4650;SDS011;2338;49.602;8.722;2023-04-03T16:32:14;2.80;;;1.90;;
4650;SDS011;2338;49.602;8.722;2023-04-03T16:35:00;4.90;;;2.10;;
4650;SDS011;2338;49.602;8.722;2023-04-03T16:37:45;3.20;;;1.90;;
4650;SDS011;2338;49.602;8.722;2023-04-03T16:40:32;5.27;;;2.10;;
4650;SDS011;2338;49.602;8.722;2023-04-03T16:43:18;4.90;;;2.53;;
4650;SDS011;2338;49.602;8.722;2023-04-03T16:46:04;6.20;;;2.60;;
4650;SDS011;2338;49.602;8.722;2023-04-03T16:48:49;3.03;;;1.70;;
4650;SDS011;2338;49.602;8.722;2023-04-03T16:51:35;3.87;;;2.07;;
4650;SDS011;2338;49.602;8.722;2023-04-03T16:54:20;7.33;;;1.87;;
4650;SDS011;2338;49.602;8.722;2023-04-03T16:57:07;3.43;;;1.80;;
4650;SDS011;2338;49.602;8.722;2023-04-03T16:59:53;5.57;;;2.07;;
4650;SDS011;2338;49.602;8.722;2023-04-03T17:02:39;4.83;;;2.27;;
4650;SDS011;2338;49.602;8.722;2023-04-03T17:05:25;5.13;;;2.33;;
4650;SDS011;2338;49.602;8.722;2023-04-03T17:08:11;5.83;;;2.40;;
4650;SDS011;2338;49.602;8.722;2023-04-03T17:10:57;3.73;;;2.03;;
4650;SDS011;2338;49.602;8.722;2023-04-03T17:13:44;2.87;;;1.90;;
4650;SDS011;2338;49.602;8.722;2023-04-03T17:16:30;6.17;;;3.07;;
4650;SDS011;2338;49.602;8.722;2023-04-03T17:19:19;5.73;;;2.83;;
4650;SDS011;2338;49.602;8.722;2023-04-03T17:22:07;4.27;;;2.20;;
4650;SDS011;2338;49.602;8.722;2023-04-03T17:24:53;3.33;;;2.43;;
4650;SDS011;2338;49.602;8.722;2023-04-03T17:27:39;4.10;;;2.47;;
4650;SDS011;2338;49.602;8.722;2023-04-03T17:30:25;6.13;;;2.70;;
4650;SDS011;2338;49.602;8.722;2023-04-03T17:33:11;3.40;;;2.13;;
4650;SDS011;2338;49.602;8.722;2023-04-03T17:35:56;4.20;;;2.20;;